sensor_id;sensor_type;location;lat;lon;timestamp;pressure;altitude;pressure_sealevel;temperature;humidity
75913;BME280;64592;52.168;21.040;2023-11-18T00:04:24;100448.72;;;0.69;100.00
75913;BME280;64592;52.168;21.040;2023-11-18T00:09:26;100441.75;;;0.66;100.00
75913;BME280;64592;52.168;21.040;2023-11-18T00:14:29;100444.41;;;0.66;100.00
75913;BME280;64592;52.168;21.040;2023-11-18T00:19:30;100459.44;;;0.66;100.00
75913;BME280;64592;52.168;21.040;2023-11-18T00:24:32;100463.75;;;0.68;100.00
75913;BME280;64592;52.168;21.040;2023-11-18T00:29:36;100466.53;;;0.65;100.00
75913;BME280;64592;52.168;21.040;2023-11-18T00:34:38;100468.38;;;0.63;100.00
75913;BME280;64592;52.168;21.040;2023-11-18T00:39:40;100468.38;;;0.63;100.00
75913;BME280;64592;52.168;21.040;2023-11-18T00:44:43;100471.00;;;0.63;100.00
75913;BME280;64592;52.168;21.040;2023-11-18T00:49:45;100474.59;;;0.62;100.00
75913;BME280;64592;52.168;21.040;2023-11-18T00:54:47;100479.94;;;0.61;100.00
75913;BME280;64592;52.168;21.040;2023-11-18T00:59:50;100483.56;;;0.58;100.00
75913;BME280;64592;52.168;21.040;2023-11-18T01:04:51;100488.88;;;0.58;100.00
75913;BME280;64592;52.168;21.040;2023-11-18T01:09:53;100495.06;;;0.59;100.00
75913;BME280;64592;52.168;21.040;2023-11-18T01:14:56;100497.75;;;0.57;100.00
75913;BME280;64592;52.168;21.040;2023-11-18T01:19:58;100490.69;;;0.56;100.00
75913;BME280;64592;52.168;21.040;2023-11-18T01:25:01;100487.19;;;0.56;100.00
75913;BME280;64592;52.168;21.040;2023-11-18T01:30:06;100474.94;;;0.52;100.00
75913;BME280;64592;52.168;21.040;2023-11-18T01:35:08;100483.56;;;0.58;100.00
75913;BME280;64592;52.168;21.040;2023-11-18T01:40:11;100473.00;;;0.57;100.00
75913;BME280;64592;52.168;21.040;2023-11-18T01:45:15;100478.34;;;0.55;100.00
75913;BME280;64592;52.168;21.040;2023-11-18T01:50:17;100477.47;;;0.55;100.00
75913;BME280;64592;52.168;21.040;2023-11-18T01:55:19;100474.69;;;0.59;100.00
75913;BME280;64592;52.168;21.040;2023-11-18T02:00:24;100485.31;;;0.59;100.00
75913;BME280;64592;52.168;21.040;2023-11-18T02:05:26;100472.97;;;0.58;100.00
75913;BME280;64592;52.168;21.040;2023-11-18T02:10:27;100476.66;;;0.53;100.00
75913;BME280;64592;52.168;21.040;2023-11-18T02:15:30;100487.22;;;0.54;100.00
75913;BME280;64592;52.168;21.040;2023-11-18T02:20:33;100484.56;;;0.54;100.00
75913;BME280;64592;52.168;21.040;2023-11-18T02:25:42;100491.63;;;0.55;100.00
75913;BME280;64592;52.168;21.040;2023-11-18T02:30:45;100500.47;;;0.54;100.00
75913;BME280;64592;52.168;21.040;2023-11-18T02:35:52;100504.78;;;0.58;100.00
75913;BME280;64592;52.168;21.040;2023-11-18T02:40:58;100507.44;;;0.58;100.00
75913;BME280;64592;52.168;21.040;2023-11-18T02:46:03;100510.00;;;0.60;100.00
75913;BME280;64592;52.168;21.040;2023-11-18T02:51:07;100511.91;;;0.56;100.00
75913;BME280;64592;52.168;21.040;2023-11-18T02:56:10;100515.47;;;0.55;100.00
75913;BME280;64592;52.168;21.040;2023-11-18T03:01:12;100510.19;;;0.55;100.00
75913;BME280;64592;52.168;21.040;2023-11-18T03:06:13;100511.38;;;0.45;100.00
75913;BME280;64592;52.168;21.040;2023-11-18T03:11:17;100528.91;;;0.51;100.00
75913;BME280;64592;52.168;21.040;2023-11-18T03:16:19;100538.63;;;0.50;100.00
75913;BME280;64592;52.168;21.040;2023-11-18T03:21:21;100536.06;;;0.47;100.00
75913;BME280;64592;52.168;21.040;2023-11-18T03:26:24;100537.75;;;0.50;100.00
75913;BME280;64592;52.168;21.040;2023-11-18T03:31:26;100548.38;;;0.50;100.00
75913;BME280;64592;52.168;21.040;2023-11-18T03:36:29;100552.88;;;0.46;100.00
75913;BME280;64592;52.168;21.040;2023-11-18T03:41:32;100555.66;;;0.43;100.00
75913;BME280;64592;52.168;21.040;2023-11-18T03:46:33;100561.66;;;0.48;100.00
75913;BME280;64592;52.168;21.040;2023-11-18T03:51:35;100571.31;;;0.51;100.00
75913;BME280;64592;52.168;21.040;2023-11-18T03:56:38;100575.75;;;0.50;100.00
75913;BME280;64592;52.168;21.040;2023-11-18T04:01:40;100570.44;;;0.50;100.00
75913;BME280;64592;52.168;21.040;2023-11-18T04:06:41;100575.75;;;0.50;100.00
75913;BME280;64592;52.168;21.040;2023-11-18T04:11:48;100570.53;;;0.47;100.00
75913;BME280;64592;52.168;21.040;2023-11-18T04:16:50;100582.97;;;0.45;100.00
75913;BME280;64592;52.168;21.040;2023-11-18T04:21:51;100576.94;;;0.40;100.00
75913;BME280;64592;52.168;21.040;2023-11-18T04:26:54;100587.53;;;0.40;100.00
75913;BME280;64592;52.168;21.040;2023-11-18T04:31:56;100589.22;;;0.44;100.00
75913;BME280;64592;52.168;21.040;2023-11-18T04:37:00;100597.84;;;0.51;100.00
75913;BME280;64592;52.168;21.040;2023-11-18T04:42:03;100595.31;;;0.46;100.00
75913;BME280;64592;52.168;21.040;2023-11-18T04:47:05;100596.16;;;0.48;100.00
75913;BME280;64592;52.168;21.040;2023-11-18T04:52:06;100598.00;;;0.45;100.00
75913;BME280;64592;52.168;21.040;2023-11-18T04:57:09;100596.28;;;0.44;100.00
75913;BME280;64592;52.168;21.040;2023-11-18T05:02:11;100609.47;;;0.45;100.00
75913;BME280;64592;52.168;21.040;2023-11-18T05:07:13;100614.78;;;0.45;100.00
75913;BME280;64592;52.168;21.040;2023-11-18T05:12:16;100610.34;;;0.46;100.00
75913;BME280;64592;52.168;21.040;2023-11-18T05:17:17;100616.63;;;0.43;100.00
75913;BME280;64592;52.168;21.040;2023-11-18T05:22:19;100617.72;;;0.36;100.00
75913;BME280;64592;52.168;21.040;2023-11-18T05:27:23;100618.53;;;0.38;100.00
75913;BME280;64592;52.168;21.040;2023-11-18T05:32:27;100621.19;;;0.38;100.00
75913;BME280;64592;52.168;21.040;2023-11-18T05:37:28;100631.78;;;0.38;100.00
75913;BME280;64592;52.168;21.040;2023-11-18T05:42:37;100637.09;;;0.38;100.00
75913;BME280;64592;52.168;21.040;2023-11-18T05:47:41;100655.75;;;0.35;100.00
75913;BME280;64592;52.168;21.040;2023-11-18T05:52:43;100661.13;;;0.32;100.00
75913;BME280;64592;52.168;21.040;2023-11-18T05:57:46;100673.63;;;0.28;100.00
75913;BME280;64592;52.168;21.040;2023-11-18T06:02:48;100686.00;;;0.28;100.00
75913;BME280;64592;52.168;21.040;2023-11-18T06:07:50;100683.41;;;0.26;100.00
75913;BME280;64592;52.168;21.040;2023-11-18T06:12:53;100674.59;;;0.24;100.00
75913;BME280;64592;52.168;21.040;2023-11-18T06:17:55;100692.13;;;0.30;100.00
75913;BME280;64592;52.168;21.040;2023-11-18T06:22:57;100692.25;;;0.25;100.00
75913;BME280;64592;52.168;21.040;2023-11-18T06:28:00;100704.53;;;0.29;100.00
75913;BME280;64592;52.168;21.040;2023-11-18T06:33:02;100725.78;;;0.28;100.00
75913;BME280;64592;52.168;21.040;2023-11-18T06:38:04;100732.88;;;0.26;100.00
75913;BME280;64592;52.168;21.040;2023-11-18T06:43:07;100724.75;;;0.32;100.00
75913;BME280;64592;52.168;21.040;2023-11-18T06:48:11;100738.84;;;0.34;100.00
75913;BME280;64592;52.168;21.040;2023-11-18T06:53:14;100738.81;;;0.35;100.00
75913;BME280;64592;52.168;21.040;2023-11-18T06:58:18;100749.47;;;0.34;100.00
75913;BME280;64592;52.168;21.040;2023-11-18T07:03:19;100756.56;;;0.32;100.00
75913;BME280;64592;52.168;21.040;2023-11-18T07:08:22;100765.38;;;0.34;100.00
75913;BME280;64592;52.168;21.040;2023-11-18T07:13:26;100769.09;;;0.27;100.00
75913;BME280;64592;52.168;21.040;2023-11-18T07:18:27;100770.91;;;0.25;100.00
75913;BME280;64592;52.168;21.040;2023-11-18T07:23:31;100785.72;;;0.32;100.00
75913;BME280;64592;52.168;21.040;2023-11-18T07:28:34;100777.00;;;0.28;100.00
75913;BME280;64592;52.168;21.040;2023-11-18T07:33:36;100785.00;;;0.27;100.00
75913;BME280;64592;52.168;21.040;2023-11-18T07:38:37;100793.03;;;0.24;100.00
75913;BME280;64592;52.168;21.040;2023-11-18T07:43:41;100796.34;;;0.32;100.00
75913;BME280;64592;52.168;21.040;2023-11-18T07:48:42;100795.50;;;0.30;100.00
75913;BME280;64592;52.168;21.040;2023-11-18T07:53:44;100792.84;;;0.30;100.00
75913;BME280;64592;52.168;21.040;2023-11-18T07:58:47;100806.28;;;0.24;100.00
75913;BME280;64592;52.168;21.040;2023-11-18T08:03:49;100822.19;;;0.24;100.00
75913;BME280;64592;52.168;21.040;2023-11-18T08:08:51;100828.28;;;0.27;100.00
75913;BME280;64592;52.168;21.040;2023-11-18T08:13:55;100821.16;;;0.29;100.00
75913;BME280;64592;52.168;21.040;2023-11-18T08:18:58;100836.97;;;0.32;100.00
75913;BME280;64592;52.168;21.040;2023-11-18T08:24:00;100851.13;;;0.31;100.00
75913;BME280;64592;52.168;21.040;2023-11-18T08:29:05;100846.06;;;0.22;100.00
75913;BME280;64592;52.168;21.040;2023-11-18T08:34:08;100845.16;;;0.23;100.00
75913;BME280;64592;52.168;21.040;2023-11-18T08:39:10;100862.84;;;0.23;100.00
75913;BME280;64592;52.168;21.040;2023-11-18T08:44:15;100881.38;;;0.24;100.00
75913;BME280;64592;52.168;21.040;2023-11-18T08:49:18;100883.13;;;0.25;100.00
75913;BME280;64592;52.168;21.040;2023-11-18T08:54:21;100890.19;;;0.25;100.00
75913;BME280;64592;52.168;21.040;2023-11-18T08:59:37;100885.78;;;0.24;100.00
75913;BME280;64592;52.168;21.040;2023-11-18T09:04:39;100875.91;;;0.30;100.00
75913;BME280;64592;52.168;21.040;2023-11-18T09:09:43;100882.84;;;0.36;100.00
75913;BME280;64592;52.168;21.040;2023-11-18T09:14:46;100881.16;;;0.33;100.00
75913;BME280;64592;52.168;21.040;2023-11-18T09:19:50;100892.59;;;0.35;100.00
75913;BME280;64592;52.168;21.040;2023-11-18T09:24:52;100896.13;;;0.36;100.00
75913;BME280;64592;52.168;21.040;2023-11-18T09:29:57;100896.00;;;0.41;100.00
75913;BME280;64592;52.168;21.040;2023-11-18T09:35:00;100902.16;;;0.41;100.00
75913;BME280;64592;52.168;21.040;2023-11-18T09:40:13;100914.59;;;0.37;100.00
75913;BME280;64592;52.168;21.040;2023-11-18T09:45:16;100906.66;;;0.37;100.00
75913;BME280;64592;52.168;21.040;2023-11-18T09:50:25;100902.22;;;0.38;100.00
75913;BME280;64592;52.168;21.040;2023-11-18T09:55:37;100904.81;;;0.41;100.00
75913;BME280;64592;52.168;21.040;2023-11-18T10:00:42;100901.31;;;0.39;100.00
75913;BME280;64592;52.168;21.040;2023-11-18T10:05:44;100910.06;;;0.44;100.00
75913;BME280;64592;52.168;21.040;2023-11-18T10:10:47;100911.63;;;0.51;100.00
75913;BME280;64592;52.168;21.040;2023-11-18T10:15:51;100923.97;;;0.52;100.00
75913;BME280;64592;52.168;21.040;2023-11-18T10:20:53;100924.91;;;0.51;100.00
75913;BME280;64592;52.168;21.040;2023-11-18T10:25:56;100931.91;;;0.52;100.00
75913;BME280;64592;52.168;21.040;2023-11-18T10:31:03;100927.63;;;0.48;100.00
75913;BME280;64592;52.168;21.040;2023-11-18T10:36:06;100919.06;;;0.37;100.00
75913;BME280;64592;52.168;21.040;2023-11-18T10:41:22;100915.41;;;0.41;100.00
75913;BME280;64592;52.168;21.040;2023-11-18T10:46:25;100918.00;;;0.44;100.00
75913;BME280;64592;52.168;21.040;2023-11-18T10:51:27;100921.56;;;0.43;100.00
75913;BME280;64592;52.168;21.040;2023-11-18T10:56:31;100921.63;;;0.40;100.00
75913;BME280;64592;52.168;21.040;2023-11-18T11:01:35;100941.00;;;0.44;100.00
75913;BME280;64592;52.168;21.040;2023-11-18T11:06:42;100914.53;;;0.42;100.00
75913;BME280;64592;52.168;21.040;2023-11-18T11:11:49;100933.28;;;0.33;100.00
75913;BME280;64592;52.168;21.040;2023-11-18T11:16:54;100943.75;;;0.39;100.00
75913;BME280;64592;52.168;21.040;2023-11-18T11:22:01;100943.59;;;0.45;100.00
75913;BME280;64592;52.168;21.040;2023-11-18T11:27:12;100940.91;;;0.47;100.00
75913;BME280;64592;52.168;21.040;2023-11-18T11:32:28;100945.19;;;0.52;100.00
75913;BME280;64592;52.168;21.040;2023-11-18T11:37:32;100952.19;;;0.55;100.00
75913;BME280;64592;52.168;21.040;2023-11-18T11:42:35;100955.78;;;0.52;100.00
75913;BME280;64592;52.168;21.040;2023-11-18T11:47:39;100969.03;;;0.52;100.00
75913;BME280;64592;52.168;21.040;2023-11-18T11:52:50;100970.84;;;0.52;100.00
75913;BME280;64592;52.168;21.040;2023-11-18T11:57:55;100984.16;;;0.50;100.00
75913;BME280;64592;52.168;21.040;2023-11-18T12:03:01;100980.53;;;0.53;100.00
75913;BME280;64592;52.168;21.040;2023-11-18T12:08:07;100985.91;;;0.51;100.00
75913;BME280;64592;52.168;21.040;2023-11-18T12:13:13;100985.97;;;0.48;100.00
75913;BME280;64592;52.168;21.040;2023-11-18T12:18:21;100984.22;;;0.47;100.00
75913;BME280;64592;52.168;21.040;2023-11-18T12:23:24;101008.16;;;0.44;100.00
75913;BME280;64592;52.168;21.040;2023-11-18T12:28:27;101005.44;;;0.47;100.00
75913;BME280;64592;52.168;21.040;2023-11-18T12:34:02;101010.66;;;0.50;100.00
75913;BME280;64592;52.168;21.040;2023-11-18T12:39:32;101015.00;;;0.53;100.00
75913;BME280;64592;52.168;21.040;2023-11-18T12:45:00;101025.63;;;0.53;100.00
75913;BME280;64592;52.168;21.040;2023-11-18T12:50:16;101027.34;;;0.55;100.00
75913;BME280;64592;52.168;21.040;2023-11-18T12:55:24;101035.13;;;0.61;100.00
75913;BME280;64592;52.168;21.040;2023-11-18T13:00:26;101050.16;;;0.62;100.00
75913;BME280;64592;52.168;21.040;2023-11-18T13:05:32;101054.72;;;0.56;100.00
75913;BME280;64592;52.168;21.040;2023-11-18T13:10:34;101072.38;;;0.58;100.00
75913;BME280;64592;52.168;21.040;2023-11-18T13:15:37;101075.03;;;0.57;100.00
75913;BME280;64592;52.168;21.040;2023-11-18T13:20:40;101083.97;;;0.53;100.00
75913;BME280;64592;52.168;21.040;2023-11-18T13:25:42;101079.69;;;0.47;100.00
75913;BME280;64592;52.168;21.040;2023-11-18T13:30:44;101099.09;;;0.49;100.00
75913;BME280;64592;52.168;21.040;2023-11-18T13:35:48;101099.00;;;0.52;100.00
75913;BME280;64592;52.168;21.040;2023-11-18T13:40:50;101099.78;;;0.57;100.00
75913;BME280;64592;52.168;21.040;2023-11-18T13:45:52;101104.25;;;0.55;100.00
75913;BME280;64592;52.168;21.040;2023-11-18T13:50:55;101115.88;;;0.50;100.00
75913;BME280;64592;52.168;21.040;2023-11-18T13:55:59;101115.00;;;0.49;100.00
75913;BME280;64592;52.168;21.040;2023-11-18T14:01:01;101128.19;;;0.52;100.00
75913;BME280;64592;52.168;21.040;2023-11-18T14:06:05;101118.69;;;0.42;100.00
75913;BME280;64592;52.168;21.040;2023-11-18T14:11:07;101122.56;;;0.26;100.00
75913;BME280;64592;52.168;21.040;2023-11-18T14:16:09;101129.63;;;0.27;100.00
75913;BME280;64592;52.168;21.040;2023-11-18T14:21:14;101137.63;;;0.24;100.00
75913;BME280;64592;52.168;21.040;2023-11-18T14:26:15;101130.56;;;0.23;100.00
75913;BME280;64592;52.168;21.040;2023-11-18T14:31:17;101143.03;;;0.19;100.00
75913;BME280;64592;52.168;21.040;2023-11-18T14:36:20;101145.66;;;0.21;100.00
75913;BME280;64592;52.168;21.040;2023-11-18T14:41:22;101142.19;;;0.17;100.00
75913;BME280;64592;52.168;21.040;2023-11-18T14:46:26;101140.44;;;0.16;100.00
75913;BME280;64592;52.168;21.040;2023-11-18T14:51:30;101149.28;;;0.15;100.00
75913;BME280;64592;52.168;21.040;2023-11-18T14:56:31;101152.81;;;0.16;100.00
75913;BME280;64592;52.168;21.040;2023-11-18T15:01:35;101152.81;;;0.16;100.00
75913;BME280;64592;52.168;21.040;2023-11-18T15:06:38;101145.72;;;0.18;100.00
75913;BME280;64592;52.168;21.040;2023-11-18T15:11:41;101138.59;;;0.21;100.00
75913;BME280;64592;52.168;21.040;2023-11-18T15:16:42;101134.19;;;0.20;100.00
75913;BME280;64592;52.168;21.040;2023-11-18T15:21:48;101142.22;;;0.16;100.00
75913;BME280;64592;52.168;21.040;2023-11-18T15:26:49;101150.25;;;0.13;100.00
75913;BME280;64592;52.168;21.040;2023-11-18T15:31:51;101151.16;;;0.12;100.00
75913;BME280;64592;52.168;21.040;2023-11-18T15:36:56;101154.69;;;0.11;100.00
75913;BME280;64592;52.168;21.040;2023-11-18T15:42:01;101149.34;;;0.14;100.00
75913;BME280;64592;52.168;21.040;2023-11-18T15:47:03;101152.94;;;0.10;100.00
75913;BME280;64592;52.168;21.040;2023-11-18T15:52:06;101161.91;;;0.03;100.00
75913;BME280;64592;52.168;21.040;2023-11-18T15:57:11;101169.81;;;0.07;100.00
75913;BME280;64592;52.168;21.040;2023-11-18T16:02:12;101177.69;;;0.09;100.00
75913;BME280;64592;52.168;21.040;2023-11-18T16:07:16;101191.84;;;0.08;100.00
75913;BME280;64592;52.168;21.040;2023-11-18T16:12:17;101191.81;;;0.09;100.00
75913;BME280;64592;52.168;21.040;2023-11-18T16:17:19;101194.44;;;0.12;100.00
75913;BME280;64592;52.168;21.040;2023-11-18T16:22:23;101194.41;;;0.14;100.00
75913;BME280;64592;52.168;21.040;2023-11-18T16:27:24;101190.03;;;0.10;100.00
75913;BME280;64592;52.168;21.040;2023-11-18T16:32:26;101195.50;;;0.00;100.00
75913;BME280;64592;52.168;21.040;2023-11-18T16:37:29;101195.63;;;-0.06;100.00
75913;BME280;64592;52.168;21.040;2023-11-18T16:42:31;101198.38;;;-0.09;100.00
75913;BME280;64592;52.168;21.040;2023-11-18T16:47:32;101202.69;;;-0.05;100.00
75913;BME280;64592;52.168;21.040;2023-11-18T16:52:38;101207.09;;;-0.04;100.00
75913;BME280;64592;52.168;21.040;2023-11-18T16:57:40;101205.41;;;-0.08;100.00
75913;BME280;64592;52.168;21.040;2023-11-18T17:02:42;101211.53;;;-0.06;100.00
75913;BME280;64592;52.168;21.040;2023-11-18T17:07:45;101225.63;;;-0.04;100.00
75913;BME280;64592;52.168;21.040;2023-11-18T17:12:47;101212.41;;;-0.05;100.00
75913;BME280;64592;52.168;21.040;2023-11-18T17:17:50;101212.38;;;-0.04;100.00
75913;BME280;64592;52.168;21.040;2023-11-18T17:22:55;101210.72;;;-0.08;100.00
75913;BME280;64592;52.168;21.040;2023-11-18T17:27:56;101212.41;;;-0.05;100.00
75913;BME280;64592;52.168;21.040;2023-11-18T17:32:58;101208.88;;;-0.04;100.00
75913;BME280;64592;52.168;21.040;2023-11-18T17:38:01;101200.97;;;-0.07;100.00
75913;BME280;64592;52.168;21.040;2023-11-18T17:43:05;101203.69;;;-0.10;100.00
75913;BME280;64592;52.168;21.040;2023-11-18T17:48:06;101198.44;;;-0.15;100.00
75913;BME280;64592;52.168;21.040;2023-11-18T17:53:10;101195.75;;;-0.12;100.00
75913;BME280;64592;52.168;21.040;2023-11-18T17:58:12;101187.81;;;-0.12;100.00
75913;BME280;64592;52.168;21.040;2023-11-18T18:03:13;101181.66;;;-0.14;100.00
75913;BME280;64592;52.168;21.040;2023-11-18T18:08:17;101174.53;;;-0.10;100.00
75913;BME280;64592;52.168;21.040;2023-11-18T18:13:18;101183.38;;;-0.10;100.00
75913;BME280;64592;52.168;21.040;2023-11-18T18:18:21;101182.50;;;-0.12;100.00
75913;BME280;64592;52.168;21.040;2023-11-18T18:23:24;101201.84;;;-0.07;100.00
75913;BME280;64592;52.168;21.040;2023-11-18T18:28:25;101207.13;;;-0.05;100.00
75913;BME280;64592;52.168;21.040;2023-11-18T18:33:27;101185.94;;;-0.07;100.00
75913;BME280;64592;52.168;21.040;2023-11-18T18:38:30;101178.84;;;-0.05;100.00
75913;BME280;64592;52.168;21.040;2023-11-18T18:43:32;101178.84;;;-0.05;100.00
75913;BME280;64592;52.168;21.040;2023-11-18T18:48:34;101173.53;;;-0.05;100.00
75913;BME280;64592;52.168;21.040;2023-11-18T18:53:37;101182.41;;;-0.07;100.00
75913;BME280;64592;52.168;21.040;2023-11-18T18:58:39;101190.34;;;-0.07;100.00
75913;BME280;64592;52.168;21.040;2023-11-18T19:03:41;101188.53;;;-0.04;100.00
75913;BME280;64592;52.168;21.040;2023-11-18T19:08:44;101194.69;;;-0.02;100.00
75913;BME280;64592;52.168;21.040;2023-11-18T19:13:45;101202.53;;;0.05;100.00
75913;BME280;64592;52.168;21.040;2023-11-18T19:18:47;101190.94;;;0.09;100.00
75913;BME280;64592;52.168;21.040;2023-11-18T19:23:50;101197.09;;;0.11;100.00
75913;BME280;64592;52.168;21.040;2023-11-18T19:28:51;101209.47;;;0.10;100.00
75913;BME280;64592;52.168;21.040;2023-11-18T19:33:53;101203.28;;;0.11;100.00
75913;BME280;64592;52.168;21.040;2023-11-18T19:38:56;101207.75;;;0.08;100.00
75913;BME280;64592;52.168;21.040;2023-11-18T19:43:58;101198.16;;;0.02;100.00
75913;BME280;64592;52.168;21.040;2023-11-18T19:48:59;101199.91;;;0.03;100.00
75913;BME280;64592;52.168;21.040;2023-11-18T19:54:02;101189.19;;;0.08;100.00
75913;BME280;64592;52.168;21.040;2023-11-18T19:59:04;101176.78;;;0.10;100.00
75913;BME280;64592;52.168;21.040;2023-11-18T20:04:06;101182.06;;;0.13;100.00
75913;BME280;64592;52.168;21.040;2023-11-18T20:09:09;101176.72;;;0.14;100.00
75913;BME280;64592;52.168;21.040;2023-11-18T20:14:11;101176.66;;;0.17;100.00
75913;BME280;64592;52.168;21.040;2023-11-18T20:19:12;101170.44;;;0.18;100.00
75913;BME280;64592;52.168;21.040;2023-11-18T20:24:15;101166.03;;;0.17;100.00
75913;BME280;64592;52.168;21.040;2023-11-18T20:29:17;101160.75;;;0.16;100.00
75913;BME280;64592;52.168;21.040;2023-11-18T20:34:19;101157.22;;;0.17;100.00
75913;BME280;64592;52.168;21.040;2023-11-18T20:39:22;101136.97;;;0.14;100.00
75913;BME280;64592;52.168;21.040;2023-11-18T20:44:23;101114.00;;;0.13;100.00
75913;BME280;64592;52.168;21.040;2023-11-18T20:49:25;101120.25;;;0.09;100.00
75913;BME280;64592;52.168;21.040;2023-11-18T20:54:29;101108.75;;;0.10;100.00
75913;BME280;64592;52.168;21.040;2023-11-18T20:59:31;101116.69;;;0.12;100.00
75913;BME280;64592;52.168;21.040;2023-11-18T21:04:33;101104.34;;;0.11;100.00
75913;BME280;64592;52.168;21.040;2023-11-18T21:09:36;101093.75;;;0.09;100.00
75913;BME280;64592;52.168;21.040;2023-11-18T21:14:39;101099.06;;;0.09;100.00
75913;BME280;64592;52.168;21.040;2023-11-18T21:19:40;101101.75;;;0.08;100.00
75913;BME280;64592;52.168;21.040;2023-11-18T21:24:44;101095.53;;;0.09;100.00
75913;BME280;64592;52.168;21.040;2023-11-18T21:29:46;101097.31;;;0.08;100.00
75913;BME280;64592;52.168;21.040;2023-11-18T21:34:47;101097.38;;;0.07;100.00
75913;BME280;64592;52.168;21.040;2023-11-18T21:39:50;101094.72;;;0.07;100.00
75913;BME280;64592;52.168;21.040;2023-11-18T21:44:52;101093.84;;;0.06;100.00
75913;BME280;64592;52.168;21.040;2023-11-18T21:49:54;101098.25;;;0.07;100.00
75913;BME280;64592;52.168;21.040;2023-11-18T21:54:57;101092.88;;;0.09;100.00
75913;BME280;64592;52.168;21.040;2023-11-18T21:59:59;101084.91;;;0.10;100.00
75913;BME280;64592;52.168;21.040;2023-11-18T22:05:01;101086.63;;;0.13;100.00
75913;BME280;64592;52.168;21.040;2023-11-18T22:10:05;101087.53;;;0.12;100.00
75913;BME280;64592;52.168;21.040;2023-11-18T22:15:07;101094.63;;;0.10;100.00
75913;BME280;64592;52.168;21.040;2023-11-18T22:20:09;101108.69;;;0.15;100.00
75913;BME280;64592;52.168;21.040;2023-11-18T22:25:14;101112.09;;;0.20;100.00
75913;BME280;64592;52.168;21.040;2023-11-18T22:30:16;101129.69;;;0.22;100.00
75913;BME280;64592;52.168;21.040;2023-11-18T22:35:20;101135.06;;;0.21;100.00
75913;BME280;64592;52.168;21.040;2023-11-18T22:40:25;101134.94;;;0.27;100.00
75913;BME280;64592;52.168;21.040;2023-11-18T22:45:27;101127.88;;;0.26;100.00
75913;BME280;64592;52.168;21.040;2023-11-18T22:50:28;101127.88;;;0.26;100.00
75913;BME280;64592;52.168;21.040;2023-11-18T22:55:32;101127.91;;;0.24;100.00
75913;BME280;64592;52.168;21.040;2023-11-18T23:00:35;101117.28;;;0.26;100.00
75913;BME280;64592;52.168;21.040;2023-11-18T23:05:50;101103.09;;;0.28;100.00
75913;BME280;64592;52.168;21.040;2023-11-18T23:10:54;101078.34;;;0.28;100.00
75913;BME280;64592;52.168;21.040;2023-11-18T23:15:56;101033.28;;;0.28;100.00
75913;BME280;64592;52.168;21.040;2023-11-18T23:21:00;101020.09;;;0.25;100.00
75913;BME280;64592;52.168;21.040;2023-11-18T23:26:04;101014.00;;;0.21;100.00
75913;BME280;64592;52.168;21.040;2023-11-18T23:31:06;101015.84;;;0.18;100.00
75913;BME280;64592;52.168;21.040;2023-11-18T23:36:14;101014.16;;;0.14;100.00
75913;BME280;64592;52.168;21.040;2023-11-18T23:41:17;101005.44;;;0.09;100.00
75913;BME280;64592;52.168;21.040;2023-11-18T23:46:21;101009.84;;;0.08;100.00
75913;BME280;64592;52.168;21.040;2023-11-18T23:51:23;101018.66;;;0.10;100.00
75913;BME280;64592;52.168;21.040;2023-11-18T23:56:26;101019.53;;;0.11;100.00
